Time;durP1;ratioP1;P1;durP2;ratioP2;P2;SDS_P1;SDS_P2;PMS_P1;PMS_P2;Temp;Humidity;BMP_temperature;BMP_pressure;BME280_temperature;BME280_humidity;BME280_pressure;Samples;Min_cycle;Max_cycle;Signal;HPM_P1;HPM_P2
2021/08/20 00:00:28;;;;;;;3.70;2.55;;;14.00;99.90;;;;;;5055547;28;20424;-94
2021/08/20 00:02:56;;;;;;;5.23;2.50;;;13.90;99.90;;;;;;5055483;28;20429;-96
2021/08/20 00:05:24;;;;;;;5.80;2.50;;;13.90;99.90;;;;;;5057854;28;20433;-94
2021/08/20 00:07:52;;;;;;;3.88;2.22;;;13.90;99.90;;;;;;5059404;28;20457;-96
2021/08/20 00:10:21;;;;;;;4.80;2.00;;;13.90;99.90;;;;;;5058710;28;20425;-95
2021/08/20 00:12:48;;;;;;;9.83;2.20;;;14.00;99.90;;;;;;5058711;28;20536;-95
2021/08/20 00:15:16;;;;;;;6.97;2.30;;;14.00;99.90;;;;;;5058025;28;20496;-96
2021/08/20 00:17:47;;;;;;;5.68;2.42;;;14.00;99.90;;;;;;5059018;28;20440;-95
2021/08/20 00:20:14;;;;;;;4.07;2.50;;;14.00;99.90;;;;;;5058899;28;20495;-93
2021/08/20 00:22:42;;;;;;;4.57;2.50;;;13.90;99.90;;;;;;5057481;28;20417;-95
2021/08/20 00:25:16;;;;;;;2.97;2.40;;;14.00;99.90;;;;;;5057794;28;20432;-94
2021/08/20 00:27:48;;;;;;;5.40;2.67;;;14.00;99.90;;;;;;5057437;28;20421;-95
2021/08/20 00:30:20;;;;;;;7.43;2.60;;;14.00;99.90;;;;;;5057972;28;20421;-96
2021/08/20 00:32:48;;;;;;;3.70;1.90;;;14.00;99.90;;;;;;5057512;28;20463;-96
2021/08/20 00:35:16;;;;;;;2.28;1.70;;;14.00;99.90;;;;;;5057818;28;20445;-95
2021/08/20 00:37:43;;;;;;;4.30;2.10;;;14.00;99.90;;;;;;5057270;28;20447;-96
2021/08/20 00:40:11;;;;;;;5.07;2.40;;;13.90;99.90;;;;;;5057098;28;20496;-95
2021/08/20 00:42:38;;;;;;;6.45;2.40;;;13.90;99.90;;;;;;5056985;28;20425;-95
2021/08/20 00:45:06;;;;;;;4.03;2.08;;;13.70;99.90;;;;;;5057294;28;20437;-95
2021/08/20 00:47:33;;;;;;;3.38;1.75;;;13.70;99.90;;;;;;5057404;28;20455;-95
2021/08/20 00:50:04;;;;;;;3.58;2.00;;;13.60;99.90;;;;;;5056528;28;20989;-95
2021/08/20 00:52:33;;;;;;;10.75;2.03;;;13.50;99.90;;;;;;5057285;28;20501;-94
2021/08/20 00:55:02;;;;;;;6.00;2.03;;;13.50;99.90;;;;;;5069239;28;20497;-95
2021/08/20 00:57:30;;;;;;;7.30;2.78;;;13.50;99.90;;;;;;5072273;28;20491;-96
2021/08/20 00:59:58;;;;;;;4.05;2.10;;;13.40;99.90;;;;;;5057012;28;20425;-96
2021/08/20 01:02:25;;;;;;;6.47;2.37;;;13.40;99.90;;;;;;5056029;28;20445;-95
2021/08/20 01:04:52;;;;;;;7.65;2.40;;;13.20;99.90;;;;;;5056132;28;20432;-95
2021/08/20 01:07:20;;;;;;;3.85;2.40;;;13.10;99.90;;;;;;5056173;28;20512;-94
2021/08/20 01:09:47;;;;;;;4.68;2.83;;;13.00;99.90;;;;;;5055600;28;20418;-94
2021/08/20 01:12:15;;;;;;;5.03;2.90;;;12.80;99.90;;;;;;5056334;28;20475;-95
2021/08/20 01:14:42;;;;;;;4.15;3.20;;;12.60;99.90;;;;;;5055656;28;20428;-94
2021/08/20 01:17:10;;;;;;;4.68;2.97;;;12.60;99.90;;;;;;5056476;28;20452;-94
2021/08/20 01:19:38;;;;;;;5.15;2.80;;;12.60;99.90;;;;;;5056515;28;20511;-95
2021/08/20 01:22:07;;;;;;;7.55;2.63;;;12.60;99.90;;;;;;5055582;28;20483;-93
2021/08/20 01:24:35;;;;;;;4.03;2.30;;;12.70;99.90;;;;;;5055353;28;20428;-94
2021/08/20 01:27:03;;;;;;;3.15;2.00;;;12.70;99.90;;;;;;5056447;28;20421;-95
2021/08/20 01:29:32;;;;;;;5.20;2.10;;;12.80;99.90;;;;;;5056602;28;20424;-94
2021/08/20 01:31:59;;;;;;;4.65;2.08;;;12.80;99.90;;;;;;5057937;28;20924;-94
2021/08/20 01:34:26;;;;;;;3.83;1.73;;;12.80;99.90;;;;;;5056656;28;20448;-95
2021/08/20 01:36:57;;;;;;;2.42;1.90;;;12.70;99.90;;;;;;5057790;28;20936;-94
2021/08/20 01:39:24;;;;;;;6.28;2.13;;;12.60;99.90;;;;;;5057587;28;20482;-95
2021/08/20 01:42:02;;;;;;;4.28;2.40;;;12.50;99.90;;;;;;5057716;28;20418;-95
2021/08/20 01:44:30;;;;;;;3.88;2.35;;;12.50;99.90;;;;;;5059047;28;21005;-94
2021/08/20 01:46:59;;;;;;;5.95;2.40;;;12.50;99.90;;;;;;5056416;28;20448;-95
2021/08/20 01:49:28;;;;;;;3.63;2.40;;;12.60;99.90;;;;;;5057181;28;20440;-94
2021/08/20 01:51:56;;;;;;;3.25;2.30;;;12.60;99.90;;;;;;5057847;28;20452;-95
2021/08/20 01:54:23;;;;;;;5.00;2.53;;;12.60;99.90;;;;;;5056367;28;20424;-94
2021/08/20 01:56:50;;;;;;;3.72;2.50;;;12.70;99.90;;;;;;5055938;28;20459;-94
2021/08/20 01:59:25;;;;;;;4.72;2.60;;;12.70;99.90;;;;;;5055992;28;20508;-94
2021/08/20 02:01:53;;;;;;;3.05;2.47;;;12.70;99.90;;;;;;5059179;28;20444;-96
2021/08/20 02:04:26;;;;;;;5.50;2.30;;;12.70;99.90;;;;;;5064433;28;20460;-96
2021/08/20 02:06:53;;;;;;;10.20;2.65;;;12.70;99.90;;;;;;5065058;28;20413;-96
2021/08/20 02:09:21;;;;;;;8.23;2.83;;;12.80;99.90;;;;;;5062362;28;20456;-96
2021/08/20 02:11:51;;;;;;;6.50;3.00;;;12.90;99.90;;;;;;5061023;28;20800;-94
2021/08/20 02:14:19;;;;;;;2.53;2.28;;;12.80;99.90;;;;;;5057610;28;20417;-96
2021/08/20 02:16:52;;;;;;;5.05;2.55;;;12.90;99.90;;;;;;5063682;28;20417;-96
2021/08/20 02:19:24;;;;;;;6.03;2.53;;;13.00;99.90;;;;;;5060394;28;20451;-96
2021/08/20 02:21:57;;;;;;;5.00;2.08;;;13.20;99.90;;;;;;5059425;28;20501;-96
2021/08/20 02:24:25;;;;;;;5.27;2.00;;;13.30;99.90;;;;;;5063437;28;20908;-96
2021/08/20 02:26:53;;;;;;;5.45;2.25;;;13.40;99.90;;;;;;5059109;28;20979;-94
2021/08/20 02:29:20;;;;;;;3.95;2.30;;;13.50;99.90;;;;;;5057635;28;20497;-95
2021/08/20 02:31:50;;;;;;;5.50;2.35;;;13.40;99.90;;;;;;5058144;28;20444;-95
2021/08/20 02:34:18;;;;;;;3.67;2.30;;;13.40;99.90;;;;;;5056208;28;20508;-94
2021/08/20 02:36:45;;;;;;;2.70;2.00;;;13.40;99.90;;;;;;5063525;28;20401;-94
2021/08/20 02:39:12;;;;;;;5.53;2.17;;;13.40;99.90;;;;;;5072893;28;20453;-95
2021/08/20 02:41:40;;;;;;;6.00;2.13;;;13.60;99.90;;;;;;5057280;28;20455;-95
2021/08/20 02:44:07;;;;;;;8.25;2.00;;;13.80;99.90;;;;;;5054917;28;20428;-96
2021/08/20 02:46:35;;;;;;;7.40;2.05;;;14.00;99.90;;;;;;5055016;28;20504;-94
2021/08/20 02:49:04;;;;;;;8.63;2.20;;;14.00;99.90;;;;;;5053956;28;20417;-95
2021/08/20 02:51:34;;;;;;;4.93;2.50;;;13.90;99.90;;;;;;5054931;28;20424;-93
2021/08/20 02:54:01;;;;;;;3.03;2.03;;;13.80;99.90;;;;;;5054434;28;20524;-93
2021/08/20 02:56:28;;;;;;;4.82;1.95;;;13.80;99.90;;;;;;5054215;28;20421;-94
2021/08/20 02:58:55;;;;;;;5.43;2.28;;;13.80;99.90;;;;;;5057223;28;20421;-96
2021/08/20 03:01:25;;;;;;;3.60;2.17;;;13.60;99.90;;;;;;5055426;28;20426;-95
2021/08/20 03:03:53;;;;;;;3.00;1.88;;;13.80;99.90;;;;;;5054915;28;20421;-95
2021/08/20 03:06:21;;;;;;;7.07;2.23;;;13.80;99.90;;;;;;5056613;28;20441;-94
2021/08/20 03:08:48;;;;;;;8.65;2.30;;;13.80;99.90;;;;;;5056177;28;20492;-94
2021/08/20 03:11:15;;;;;;;4.03;2.08;;;13.90;99.90;;;;;;5055525;28;20999;-95
2021/08/20 03:13:42;;;;;;;3.25;2.22;;;13.90;99.90;;;;;;5055781;28;20501;-94
2021/08/20 03:16:09;;;;;;;4.88;2.40;;;13.90;99.90;;;;;;5055042;28;20432;-94
2021/08/20 03:18:36;;;;;;;11.15;2.75;;;13.80;99.90;;;;;;5055657;28;20928;-96
2021/08/20 03:21:03;;;;;;;6.20;2.60;;;13.70;99.90;;;;;;5055608;28;20955;-94
2021/08/20 03:23:30;;;;;;;6.17;2.40;;;13.70;99.90;;;;;;5055732;28;20475;-94
2021/08/20 03:25:57;;;;;;;10.38;2.25;;;13.70;99.90;;;;;;5055272;28;20509;-94
2021/08/20 03:28:25;;;;;;;5.10;2.00;;;13.60;99.90;;;;;;5055868;28;20916;-95
2021/08/20 03:30:52;;;;;;;2.75;2.40;;;13.60;99.90;;;;;;5056025;28;20421;-94
2021/08/20 03:33:19;;;;;;;3.50;2.50;;;13.60;99.90;;;;;;5055488;28;20742;-95
2021/08/20 03:35:46;;;;;;;3.47;2.72;;;13.60;99.90;;;;;;5054673;28;20916;-94
2021/08/20 03:38:13;;;;;;;5.70;2.80;;;13.50;99.90;;;;;;5054883;28;20924;-94
2021/08/20 03:40:40;;;;;;;3.58;2.80;;;13.50;99.90;;;;;;5054714;28;20413;-94
2021/08/20 03:43:07;;;;;;;3.00;2.42;;;13.40;99.90;;;;;;5055704;28;20428;-95
2021/08/20 03:45:35;;;;;;;5.72;2.90;;;13.50;99.90;;;;;;5053093;28;20432;-94
2021/08/20 03:48:02;;;;;;;4.27;2.73;;;13.50;99.90;;;;;;5053763;28;21247;-95
2021/08/20 03:50:30;;;;;;;5.50;3.15;;;13.50;99.90;;;;;;5054267;28;20455;-94
2021/08/20 03:53:00;;;;;;;5.22;3.38;;;13.60;99.90;;;;;;5054332;28;20418;-94
2021/08/20 03:55:27;;;;;;;5.95;3.72;;;13.60;99.90;;;;;;5054302;28;20431;-95
2021/08/20 03:57:54;;;;;;;4.57;3.33;;;13.60;99.90;;;;;;5053284;28;20496;-95
2021/08/20 04:00:22;;;;;;;7.22;3.92;;;13.60;99.90;;;;;;5054826;28;20508;-96
2021/08/20 04:02:50;;;;;;;8.45;5.72;;;13.50;99.90;;;;;;5052965;28;20769;-93
2021/08/20 04:05:18;;;;;;;6.83;5.23;;;13.40;99.90;;;;;;5054354;28;20500;-95
2021/08/20 04:07:46;;;;;;;8.15;3.83;;;13.30;99.90;;;;;;5052962;28;20456;-94
2021/08/20 04:10:13;;;;;;;5.28;2.95;;;13.30;99.90;;;;;;5053472;28;20428;-94
2021/08/20 04:12:42;;;;;;;5.75;2.95;;;13.30;99.90;;;;;;5053581;28;20428;-95
2021/08/20 04:15:10;;;;;;;4.95;2.60;;;13.40;99.90;;;;;;5058166;28;20453;-95
2021/08/20 04:17:37;;;;;;;4.10;2.78;;;13.30;99.90;;;;;;5056465;28;20440;-94
2021/08/20 04:20:05;;;;;;;4.32;2.85;;;13.40;99.90;;;;;;5074408;28;20485;-96
2021/08/20 04:22:32;;;;;;;4.38;2.60;;;13.40;99.90;;;;;;5062577;28;20477;-95
2021/08/20 04:25:04;;;;;;;8.10;3.20;;;13.40;99.90;;;;;;5056327;28;20421;-95
2021/08/20 04:27:33;;;;;;;4.80;2.40;;;13.50;99.90;;;;;;5055159;28;21019;-96
2021/08/20 04:30:00;;;;;;;9.65;2.40;;;13.50;99.90;;;;;;5056391;28;20980;-95
2021/08/20 04:32:27;;;;;;;7.95;2.53;;;13.60;99.90;;;;;;5056082;28;20429;-95
2021/08/20 04:34:54;;;;;;;3.20;2.30;;;13.60;99.90;;;;;;5056276;28;20421;-96
2021/08/20 04:37:25;;;;;;;4.07;2.85;;;13.60;99.90;;;;;;5055055;28;20421;-96
2021/08/20 04:40:01;;;;;;;6.80;3.70;;;13.60;99.90;;;;;;5054703;28;20433;-95
2021/08/20 04:42:28;;;;;;;7.57;5.97;;;13.70;99.90;;;;;;5054732;28;20428;-96
2021/08/20 04:44:56;;;;;;;6.03;3.80;;;13.70;99.90;;;;;;5055220;28;20421;-95
2021/08/20 04:47:23;;;;;;;3.22;2.38;;;13.80;99.90;;;;;;5056256;28;20764;-96
2021/08/20 04:49:50;;;;;;;5.78;2.13;;;13.90;99.90;;;;;;5055223;28;20418;-96
2021/08/20 04:52:20;;;;;;;3.17;2.20;;;14.00;99.90;;;;;;5058232;28;20456;-96
2021/08/20 04:54:48;;;;;;;2.67;2.20;;;14.00;99.90;;;;;;5057612;28;20463;-96
2021/08/20 04:57:15;;;;;;;2.58;2.10;;;14.10;99.90;;;;;;5057123;28;20428;-96
2021/08/20 04:59:42;;;;;;;5.95;2.40;;;14.20;99.90;;;;;;5056250;28;20427;-96
2021/08/20 05:02:09;;;;;;;4.80;2.20;;;14.10;99.90;;;;;;5056843;28;20513;-96
2021/08/20 05:04:37;;;;;;;5.10;2.17;;;14.20;99.90;;;;;;5058286;28;20444;-96
2021/08/20 05:07:05;;;;;;;5.57;2.05;;;14.20;99.90;;;;;;5058122;28;20433;-95
2021/08/20 05:09:33;;;;;;;5.03;2.10;;;14.40;99.90;;;;;;5057191;28;20424;-94
2021/08/20 05:12:01;;;;;;;3.65;2.15;;;14.50;99.90;;;;;;5056792;28;20504;-94
2021/08/20 05:14:29;;;;;;;8.02;2.53;;;14.50;99.90;;;;;;5056571;28;20428;-95
2021/08/20 05:16:56;;;;;;;4.45;2.30;;;14.30;99.90;;;;;;5063461;28;20448;-95
2021/08/20 05:19:23;;;;;;;4.07;2.40;;;14.40;99.90;;;;;;5057440;28;20413;-95
2021/08/20 05:21:50;;;;;;;3.47;2.58;;;14.40;99.90;;;;;;5059771;28;20754;-95
2021/08/20 05:24:17;;;;;;;4.80;2.30;;;14.50;99.90;;;;;;5055768;28;20496;-95
2021/08/20 05:26:45;;;;;;;3.40;2.20;;;14.50;99.90;;;;;;5055712;28;20456;-96
2021/08/20 05:29:12;;;;;;;4.43;2.20;;;14.50;99.90;;;;;;5055313;28;20427;-96
2021/08/20 05:31:39;;;;;;;2.00;1.80;;;14.60;99.90;;;;;;5056124;28;20828;-95
2021/08/20 05:34:06;;;;;;;2.72;1.90;;;14.80;99.90;;;;;;5055409;28;20472;-95
2021/08/20 05:36:33;;;;;;;6.78;2.38;;;14.80;99.90;;;;;;5054954;28;20425;-94
2021/08/20 05:39:00;;;;;;;2.90;2.10;;;14.90;99.90;;;;;;5054816;28;20429;-96
2021/08/20 05:41:27;;;;;;;4.65;1.92;;;14.90;99.90;;;;;;5055443;28;20424;-95
2021/08/20 05:43:54;;;;;;;4.97;2.47;;;14.80;99.90;;;;;;5054861;28;20413;-96
2021/08/20 05:46:22;;;;;;;3.97;2.30;;;14.70;99.90;;;;;;5055359;28;20783;-95
2021/08/20 05:48:49;;;;;;;5.30;2.55;;;14.80;99.90;;;;;;5055381;28;20510;-96
2021/08/20 05:51:16;;;;;;;3.45;2.00;;;15.10;99.90;;;;;;5055396;28;20786;-96
2021/08/20 05:53:43;;;;;;;2.65;2.00;;;15.30;99.90;;;;;;5055151;28;21002;-96
2021/08/20 05:56:11;;;;;;;3.97;2.00;;;15.40;99.90;;;;;;5056684;28;20428;-96
2021/08/20 05:58:38;;;;;;;3.50;2.23;;;15.40;99.90;;;;;;5055622;28;20428;-96
2021/08/20 06:01:05;;;;;;;4.57;2.22;;;15.30;99.90;;;;;;5066842;28;20401;-96
2021/08/20 06:03:32;;;;;;;5.75;2.58;;;15.20;99.90;;;;;;5070166;28;20473;-94
2021/08/20 06:05:59;;;;;;;8.37;2.90;;;15.10;99.90;;;;;;5056201;28;20445;-94
2021/08/20 06:08:26;;;;;;;5.03;2.90;;;15.10;99.90;;;;;;5055607;28;20891;-96
2021/08/20 06:10:54;;;;;;;7.20;3.58;;;15.30;99.90;;;;;;5058143;28;20414;-96
2021/08/20 06:13:27;;;;;;;8.13;3.90;;;15.50;99.90;;;;;;5063100;28;20938;-96
2021/08/20 06:15:54;;;;;;;6.20;3.42;;;15.40;99.90;;;;;;5058752;28;20418;-95
2021/08/20 06:18:21;;;;;;;4.15;3.38;;;15.40;99.90;;;;;;5054386;28;20449;-95
2021/08/20 06:20:48;;;;;;;5.10;4.03;;;15.70;99.90;;;;;;5054119;28;20421;-96
2021/08/20 06:23:15;;;;;;;7.43;4.67;;;15.70;99.90;;;;;;5054747;28;20439;-96
2021/08/20 06:25:43;;;;;;;9.38;5.50;;;15.70;99.90;;;;;;5053834;28;20512;-96
2021/08/20 06:28:18;;;;;;;9.10;5.07;;;15.80;99.90;;;;;;5055377;28;20426;-96
2021/08/20 06:30:51;;;;;;;8.07;4.47;;;16.00;99.90;;;;;;5040640;28;20930;-95
2021/08/20 06:33:37;;;;;;;5.30;3.30;;;16.20;99.90;;;;;;5055705;28;20420;-95
2021/08/20 06:36:05;;;;;;;6.20;2.90;;;16.30;99.90;;;;;;5058325;28;20500;-96
2021/08/20 06:38:32;;;;;;;4.10;2.72;;;16.60;99.90;;;;;;5054507;28;20425;-96
2021/08/20 06:41:00;;;;;;;4.60;2.88;;;16.70;99.90;;;;;;5054923;28;20939;-92
2021/08/20 06:43:27;;;;;;;3.40;2.45;;;16.60;99.90;;;;;;5056649;28;20951;-96
2021/08/20 06:45:59;;;;;;;5.70;2.58;;;16.40;99.90;;;;;;5056920;28;20437;-96
2021/08/20 06:48:27;;;;;;;6.95;3.33;;;16.50;99.90;;;;;;5057064;28;20426;-96
2021/08/20 06:50:54;;;;;;;7.00;3.60;;;16.70;99.90;;;;;;5059747;28;20421;-91
2021/08/20 06:53:20;;;;;;;4.60;3.10;;;16.90;99.90;;;;;;5065122;28;20810;-96
2021/08/20 06:55:47;;;;;;;3.47;2.55;;;17.10;99.90;;;;;;5063631;28;20431;-96
2021/08/20 06:58:14;;;;;;;3.60;2.70;;;17.50;99.90;;;;;;5061634;28;20393;-93
2021/08/20 07:00:41;;;;;;;3.95;1.90;;;18.00;99.90;;;;;;5075385;22;20417;-93
2021/08/20 07:05:59;;;;;;;2.90;1.77;;;18.40;99.90;;;;;;5559222;22;20420;-96
2021/08/20 07:08:29;;;;;;;4.55;2.03;;;18.60;99.90;;;;;;5030526;28;21013;-94
2021/08/20 07:14:21;;;;;;;3.60;2.00;;;18.20;99.90;;;;;;5530340;22;20427;-95
2021/08/20 07:16:48;;;;;;;3.75;2.13;;;18.20;99.90;;;;;;5034299;28;20415;-95
2021/08/20 07:19:15;;;;;;;3.88;2.53;;;18.00;99.90;;;;;;5034055;28;20427;-94
2021/08/20 07:21:42;;;;;;;7.88;2.60;;;17.80;99.90;;;;;;5034349;28;20426;-93
2021/08/20 07:24:09;;;;;;;5.88;2.70;;;17.80;99.90;;;;;;5035318;28;20898;-91
2021/08/20 07:26:36;;;;;;;4.97;2.58;;;17.90;99.90;;;;;;5033842;28;20442;-96
2021/08/20 07:29:03;;;;;;;2.88;2.38;;;17.90;99.90;;;;;;5034088;28;20419;-91
2021/08/20 07:31:30;;;;;;;5.30;2.40;;;17.80;99.90;;;;;;5033956;28;20427;-92
2021/08/20 07:33:57;;;;;;;2.63;2.20;;;17.90;99.90;;;;;;5033759;28;20834;-91
2021/08/20 07:36:24;;;;;;;5.20;2.50;;;17.90;99.90;;;;;;5033976;28;20486;-93
2021/08/20 07:39:06;;;;;;;5.88;2.28;;;18.10;99.90;;;;;;4993405;28;20419;-92
2021/08/20 07:41:33;;;;;;;4.65;2.13;;;18.20;99.90;;;;;;4977321;28;20429;-92
2021/08/20 07:44:00;;;;;;;3.92;2.00;;;18.30;99.90;;;;;;4995701;28;20430;-92
2021/08/20 07:46:27;;;;;;;5.20;2.10;;;18.50;99.90;;;;;;4977971;28;20446;-91
2021/08/20 07:48:54;;;;;;;4.40;2.00;;;18.60;99.90;;;;;;4977088;28;20457;-93
2021/08/20 07:51:21;;;;;;;3.17;2.00;;;18.60;99.90;;;;;;4976840;28;20805;-91
2021/08/20 07:53:48;;;;;;;6.80;2.00;;;18.60;99.90;;;;;;4977162;28;20431;-90
2021/08/20 07:56:15;;;;;;;3.72;2.20;;;18.60;99.90;;;;;;4977087;28;20502;-92
2021/08/20 07:58:42;;;;;;;7.00;2.13;;;18.60;99.90;;;;;;4976197;28;20984;-91
2021/08/20 08:01:10;;;;;;;7.38;2.38;;;18.70;99.90;;;;;;4976529;28;20423;-91
2021/08/20 08:03:41;;;;;;;7.07;2.42;;;18.70;99.90;;;;;;4977673;28;20422;-90
2021/08/20 08:06:12;;;;;;;8.68;2.60;;;19.00;99.90;;;;;;4976617;28;20423;-91
2021/08/20 08:08:40;;;;;;;8.45;2.42;;;19.20;99.90;;;;;;4976719;28;20426;-89
2021/08/20 08:11:08;;;;;;;4.63;2.08;;;19.20;99.90;;;;;;4976307;28;20427;-92
2021/08/20 08:13:35;;;;;;;4.67;2.30;;;19.40;99.90;;;;;;4976646;28;20435;-93
2021/08/20 08:16:03;;;;;;;8.57;2.97;;;19.30;99.90;;;;;;4995119;28;20434;-94
2021/08/20 08:18:30;;;;;;;3.63;2.43;;;19.20;99.90;;;;;;5033276;28;20415;-93
2021/08/20 08:20:57;;;;;;;5.47;2.90;;;19.50;99.90;;;;;;5030439;28;20958;-93
2021/08/20 08:23:24;;;;;;;9.50;2.88;;;19.40;99.90;;;;;;5032874;28;20419;-94
2021/08/20 08:25:51;;;;;;;6.40;3.20;;;19.10;99.90;;;;;;5034457;28;20427;-92
2021/08/20 08:28:20;;;;;;;3.72;2.60;;;19.00;99.90;;;;;;5036400;28;20441;-92
2021/08/20 08:30:49;;;;;;;7.15;3.30;;;18.90;99.90;;;;;;5036542;28;20524;-93
2021/08/20 08:33:17;;;;;;;6.70;3.80;;;18.60;99.90;;;;;;5036465;28;20429;-92
2021/08/20 08:36:00;;;;;;;7.70;3.17;;;18.50;99.90;;;;;;5037586;28;20807;-93
2021/08/20 08:38:27;;;;;;;7.70;3.30;;;18.40;99.90;;;;;;5035884;28;20422;-93
2021/08/20 08:40:54;;;;;;;6.63;3.67;;;18.60;99.90;;;;;;5036929;28;20423;-92
2021/08/20 08:43:21;;;;;;;7.40;3.58;;;18.90;99.90;;;;;;5035984;28;20956;-92
2021/08/20 08:45:48;;;;;;;7.93;3.38;;;19.00;99.90;;;;;;5036497;28;20422;-92
2021/08/20 08:48:15;;;;;;;7.22;3.60;;;18.80;99.90;;;;;;5036140;28;20431;-91
2021/08/20 08:50:45;;;;;;;5.88;3.58;;;18.90;99.90;;;;;;5036273;28;20415;-93
2021/08/20 08:53:12;;;;;;;7.35;3.33;;;18.90;99.90;;;;;;5036272;28;20415;-91
2021/08/20 08:55:56;;;;;;;4.80;3.10;;;19.00;99.90;;;;;;5037002;28;20583;-92
2021/08/20 08:58:24;;;;;;;5.20;3.47;;;18.80;99.90;;;;;;5035651;28;20415;-93
2021/08/20 09:00:54;;;;;;;5.55;3.55;;;18.90;99.90;;;;;;5035665;28;20431;-92
2021/08/20 09:03:26;;;;;;;6.40;3.20;;;19.10;99.90;;;;;;5035858;28;20783;-93
2021/08/20 09:05:55;;;;;;;10.60;3.00;;;19.30;99.90;;;;;;5035821;28;20427;-92
2021/08/20 09:08:24;;;;;;;6.20;3.80;;;19.20;99.90;;;;;;5039179;28;20435;-95
2021/08/20 09:10:55;;;;;;;8.80;3.67;;;19.30;99.90;;;;;;5039191;28;20419;-92
2021/08/20 09:13:28;;;;;;;4.53;3.63;;;19.40;99.90;;;;;;5037239;28;20439;-92
2021/08/20 09:16:13;;;;;;;5.53;3.00;;;19.60;99.90;;;;;;5038254;28;20419;-94
2021/08/20 09:18:41;;;;;;;3.50;2.90;;;19.90;99.90;;;;;;5036235;28;20427;-95
2021/08/20 09:21:15;;;;;;;4.80;3.40;;;19.90;99.90;;;;;;5035438;28;20418;-89
2021/08/20 09:23:43;;;;;;;4.50;3.07;;;20.00;99.90;;;;;;5037949;28;21021;-92
2021/08/20 09:26:11;;;;;;;4.55;3.25;;;19.90;99.90;;;;;;5048471;28;20407;-92
2021/08/20 09:28:40;;;;;;;8.05;3.35;;;19.60;99.90;;;;;;5041824;28;20439;-92
2021/08/20 09:31:15;;;;;;;6.97;3.60;;;19.40;99.90;;;;;;5037418;28;20422;-91
2021/08/20 09:33:42;;;;;;;8.30;3.72;;;19.60;99.90;;;;;;5036969;28;20430;-92
2021/08/20 09:36:15;;;;;;;6.63;3.85;;;19.70;99.90;;;;;;5037627;28;20415;-92
2021/08/20 09:38:49;;;;;;;4.70;3.50;;;19.60;99.90;;;;;;5037143;28;20426;-95
2021/08/20 09:41:25;;;;;;;7.63;3.70;;;19.70;99.90;;;;;;5035561;28;20415;-92
2021/08/20 09:44:00;;;;;;;7.03;3.67;;;19.80;99.90;;;;;;5037199;28;20443;-96
2021/08/20 09:46:39;;;;;;;5.75;3.88;;;20.00;99.90;;;;;;5036107;28;20458;-95
2021/08/20 09:49:08;;;;;;;5.97;3.63;;;20.00;99.90;;;;;;5036054;28;20763;-92
2021/08/20 09:51:36;;;;;;;5.25;3.10;;;20.40;99.90;;;;;;5035316;28;20450;-95
2021/08/20 09:54:07;;;;;;;6.97;3.95;;;21.00;99.90;;;;;;5036607;28;20423;-92
2021/08/20 09:56:54;;;;;;;5.32;3.40;;;20.70;99.90;;;;;;5036058;28;20422;-96
2021/08/20 09:59:27;;;;;;;6.47;3.05;;;20.70;99.90;;;;;;5035882;28;20430;-96
2021/08/20 10:01:55;;;;;;;4.90;2.40;;;20.70;99.90;;;;;;5035156;28;20407;-93
2021/08/20 10:04:26;;;;;;;7.88;2.65;;;20.80;99.90;;;;;;5035042;28;20427;-96
2021/08/20 10:06:55;;;;;;;3.97;2.10;;;20.80;99.90;;;;;;5035368;28;20417;-92
2021/08/20 10:09:23;;;;;;;5.45;2.72;;;20.90;99.90;;;;;;5035030;28;20426;-93
2021/08/20 10:11:54;;;;;;;5.47;2.42;;;21.10;99.90;;;;;;5035478;28;20445;-93
2021/08/20 10:14:26;;;;;;;6.78;3.08;;;21.10;99.90;;;;;;5034523;28;20438;-95
2021/08/20 10:16:53;;;;;;;4.72;2.45;;;21.10;99.90;;;;;;5019110;28;20910;-96
2021/08/20 10:19:20;;;;;;;5.25;2.70;;;21.10;99.90;;;;;;5035255;28;20445;-95
2021/08/20 10:21:48;;;;;;;5.20;3.10;;;20.80;99.90;;;;;;5035719;28;20407;-93
2021/08/20 10:24:15;;;;;;;6.40;2.83;;;20.60;99.90;;;;;;5035431;28;20430;-93
2021/08/20 10:26:46;;;;;;;3.85;2.40;;;20.60;99.90;;;;;;5035630;28;20418;-93
2021/08/20 10:29:15;;;;;;;3.22;2.30;;;20.80;99.90;;;;;;5034710;28;20498;-92
2021/08/20 10:31:43;;;;;;;6.40;2.35;;;21.20;99.90;;;;;;5035715;28;20421;-93
2021/08/20 10:34:29;;;;;;;4.28;2.05;;;21.20;99.90;;;;;;5035072;28;20520;-94
2021/08/20 10:37:23;;;;;;;3.03;2.00;;;21.50;99.90;;;;;;5034324;28;20419;-93
2021/08/20 10:39:52;;;;;;;3.17;2.25;;;21.70;99.90;;;;;;5032033;28;20430;-91
2021/08/20 10:42:22;;;;;;;3.60;2.38;;;21.70;99.90;;;;;;5034228;28;20800;-92
2021/08/20 10:44:51;;;;;;;5.72;2.50;;;21.70;99.90;;;;;;5033904;28;20515;-93
2021/08/20 10:47:29;;;;;;;29.60;8.65;;;21.60;99.90;;;;;;5034385;28;20441;-95
2021/08/20 10:50:36;;;;;;;6.75;3.20;;;21.40;99.90;;;;;;5033804;28;20434;-94
2021/08/20 10:53:21;;;;;;;5.45;3.17;;;21.30;99.90;;;;;;5034291;28;20914;-95
2021/08/20 10:55:51;;;;;;;13.00;4.03;;;21.20;99.90;;;;;;5035518;28;20456;-94
2021/08/20 10:58:41;;;;;;;11.40;4.83;;;21.10;99.90;;;;;;5034253;28;20423;-95
2021/08/20 11:01:20;;;;;;;5.78;3.20;;;21.20;99.90;;;;;;5036624;28;20437;-96
2021/08/20 11:03:51;;;;;;;6.63;3.08;;;21.20;99.90;;;;;;5038104;28;20775;-96
2021/08/20 11:06:56;;;;;;;11.53;4.00;;;21.20;99.90;;;;;;5023194;28;20494;-95
2021/08/20 11:09:30;;;;;;;6.10;3.17;;;21.20;99.90;;;;;;5044581;28;20866;-96
2021/08/20 11:11:59;;;;;;;8.17;3.37;;;21.30;99.90;;;;;;5039943;28;20451;-94
2021/08/20 11:14:29;;;;;;;7.18;2.72;;;21.10;99.90;;;;;;5041158;28;20473;-95
2021/08/20 11:16:59;;;;;;;3.95;2.33;;;21.10;99.90;;;;;;5042200;28;20448;-96
2021/08/20 11:19:51;;;;;;;5.70;2.47;;;21.20;99.90;;;;;;5042660;28;20403;-94
2021/08/20 11:22:21;;;;;;;5.90;2.47;;;21.50;99.90;;;;;;5038899;28;20426;-96
2021/08/20 11:25:15;;;;;;;5.47;2.60;;;21.90;99.90;;;;;;5041255;28;20489;-94
2021/08/20 11:28:08;;;;;;;4.37;2.53;;;22.20;99.90;;;;;;5043569;28;20929;-96
2021/08/20 11:31:03;;;;;;;4.50;2.75;;;22.50;99.90;;;;;;5025662;28;20426;-95
2021/08/20 11:33:38;;;;;;;5.18;3.22;;;22.10;99.90;;;;;;5036197;28;20419;-96
2021/08/20 11:36:17;;;;;;;5.80;3.17;;;22.10;99.90;;;;;;5040346;28;20431;-96
2021/08/20 11:39:10;;;;;;;4.93;3.30;;;22.10;99.90;;;;;;5051280;23;20426;-96
2021/08/20 11:41:42;;;;;;;5.00;3.00;;;22.20;99.90;;;;;;5049204;28;20408;-91
2021/08/20 11:44:12;;;;;;;5.38;2.95;;;22.60;99.90;;;;;;5058443;22;20431;-91
2021/08/20 11:46:42;;;;;;;4.07;3.00;;;23.00;99.90;;;;;;5022132;28;20439;-92
2021/08/20 11:49:11;;;;;;;4.78;3.13;;;23.30;99.90;;;;;;5020938;28;20912;-92
2021/08/20 11:51:42;;;;;;;5.70;2.75;;;23.70;99.90;;;;;;5018682;28;20419;-93
2021/08/20 11:54:11;;;;;;;4.77;2.80;;;23.90;99.90;;;;;;5045981;22;20413;-93
2021/08/20 11:56:56;;;;;;;3.50;2.33;;;24.20;99.90;;;;;;5039447;28;20408;-92
2021/08/20 11:59:23;;;;;;;3.33;2.30;;;24.60;99.90;;;;;;5040407;28;20501;-92
2021/08/20 12:01:55;;;;;;;4.05;2.17;;;24.90;99.90;;;;;;5045604;28;20426;-96
2021/08/20 12:04:32;;;;;;;4.03;2.58;;;24.70;99.90;;;;;;5044408;28;20469;-93
2021/08/20 12:06:59;;;;;;;3.92;2.75;;;24.10;99.90;;;;;;5045669;28;20763;-95
2021/08/20 12:09:26;;;;;;;6.90;2.60;;;24.10;99.90;;;;;;5043216;28;20438;-96
2021/08/20 12:11:55;;;;;;;5.13;2.40;;;24.30;99.90;;;;;;5044312;28;20419;-96
2021/08/20 12:14:29;;;;;;;3.40;2.00;;;24.50;99.90;;;;;;5039519;28;20464;-93
2021/08/20 12:16:58;;;;;;;3.95;2.10;;;24.50;98.50;;;;;;5037879;28;20423;-92
2021/08/20 12:19:42;;;;;;;4.63;2.30;;;24.20;98.00;;;;;;5038588;28;20415;-93
2021/08/20 12:22:12;;;;;;;4.25;2.30;;;24.00;99.90;;;;;;5021702;28;20427;-92
2021/08/20 12:24:41;;;;;;;3.75;2.08;;;23.50;99.90;;;;;;5037046;28;20426;-92
2021/08/20 12:27:21;;;;;;;4.30;2.30;;;23.10;99.90;;;;;;5037027;28;20415;-96
2021/08/20 12:29:57;;;;;;;6.20;2.15;;;23.20;99.90;;;;;;5036093;28;20430;-93
2021/08/20 12:32:35;;;;;;;2.75;1.90;;;23.50;99.80;;;;;;5037029;28;20760;-92
2021/08/20 12:35:17;;;;;;;5.95;2.17;;;23.20;98.20;;;;;;5036441;28;20434;-96
2021/08/20 12:38:17;;;;;;;5.38;1.80;;;23.10;97.40;;;;;;5037703;28;20423;-95
2021/08/20 12:41:09;;;;;;;5.10;2.40;;;23.20;99.90;;;;;;5037783;28;20395;-94
2021/08/20 12:43:40;;;;;;;3.27;1.97;;;23.70;98.00;;;;;;5037300;28;20419;-95
2021/08/20 12:46:12;;;;;;;3.70;1.90;;;23.80;98.60;;;;;;5036480;28;20430;-95
2021/08/20 12:48:41;;;;;;;9.48;2.20;;;23.30;97.80;;;;;;5036504;28;20441;-96
2021/08/20 12:51:12;;;;;;;4.03;1.95;;;23.00;99.30;;;;;;5054206;28;20427;-94
2021/08/20 12:53:40;;;;;;;5.45;1.80;;;22.60;99.30;;;;;;5039566;28;20426;-96
2021/08/20 12:56:07;;;;;;;4.57;1.80;;;22.60;99.90;;;;;;5036965;28;20415;-96
2021/08/20 12:58:36;;;;;;;3.35;2.05;;;23.40;99.20;;;;;;5036230;28;20431;-94
2021/08/20 13:01:09;;;;;;;5.85;2.00;;;24.00;98.70;;;;;;5036457;28;20502;-95
2021/08/20 13:03:36;;;;;;;2.60;1.75;;;24.10;98.30;;;;;;5029727;28;20416;-92
2021/08/20 13:06:07;;;;;;;3.77;1.93;;;24.60;97.80;;;;;;5021504;28;20420;-90